Time;durP1;ratioP1;P1;durP2;ratioP2;P2;SDS_P1;SDS_P2;PMS_P1;PMS_P2;Temp;Humidity;BMP_temperature;BMP_pressure;BME280_temperature;BME280_humidity;BME280_pressure;Samples;Min_cycle;Max_cycle;Signal;HPM_P1;HPM_P2
2022/04/30 00:00:36;;;;;;;;;;;;;;;18.12;61.78;100370.19;2056339;28;20040;-70
2022/04/30 00:01:37;;;;;;;;;;;;;;;18.13;61.66;100381.97;2058666;28;20215;-68
2022/04/30 00:02:37;;;;;;;;;;;;;;;18.12;61.81;100370.19;2056842;28;19917;-69
2022/04/30 00:03:38;;;;;;;;;;;;;;;18.12;61.70;100369.31;2058953;28;20378;-69
2022/04/30 00:04:43;;;;;;;;;;;;;;;18.13;61.57;100371.06;2059245;28;20621;-69
2022/04/30 00:05:44;;;;;;;;;;;;;;;18.13;61.71;100376.53;2057358;28;20390;-69
2022/04/30 00:06:44;;;;;;;;;;;;;;;18.13;61.64;100365.63;2059353;28;20713;-69
2022/04/30 00:07:44;;;;;;;;;;;;;;;18.13;61.54;100376.53;2054121;28;19918;-69
2022/04/30 00:08:45;;;;;;;;;;;;;;;18.12;61.84;100366.59;2057116;28;19917;-69
2022/04/30 00:09:45;;;;;;;;;;;;;;;18.12;61.58;100374.78;2059913;28;20539;-68
2022/04/30 00:10:46;;;;;;;;;;;;;;;18.12;61.60;100372.06;2053529;28;20400;-69
2022/04/30 00:11:46;;;;;;;;;;;;;;;18.12;61.64;100369.31;2064063;28;19921;-68
2022/04/30 00:12:46;;;;;;;;;;;;;;;18.13;61.62;100376.53;2063036;28;19924;-68
2022/04/30 00:13:47;;;;;;;;;;;;;;;18.11;61.56;100373.91;2058149;28;20435;-69
2022/04/30 00:14:47;;;;;;;;;;;;;;;18.11;61.73;100373.06;2056399;28;19916;-69
2022/04/30 00:15:47;;;;;;;;;;;;;;;18.11;61.43;100371.19;2057842;28;20008;-68
2022/04/30 00:16:48;;;;;;;;;;;;;;;18.11;61.59;100364.88;2057957;28;19916;-69
2022/04/30 00:17:51;;;;;;;;;;;;;;;18.11;61.51;100371.19;2058959;28;19937;-68
2022/04/30 00:18:51;;;;;;;;;;;;;;;18.11;61.69;100364.88;2055750;28;19917;-69
2022/04/30 00:19:52;;;;;;;;;;;;;;;18.11;61.65;100365.75;2056804;28;20478;-68
2022/04/30 00:20:52;;;;;;;;;;;;;;;18.11;61.58;100362.16;2053702;28;19922;-68
2022/04/30 00:21:52;;;;;;;;;;;;;;;18.11;61.66;100367.59;2059609;28;19968;-68
2022/04/30 00:22:53;;;;;;;;;;;;;;;18.11;61.85;100368.47;2055209;28;19917;-68
2022/04/30 00:23:55;;;;;;;;;;;;;;;18.11;61.69;100368.47;2059633;28;19917;-70
2022/04/30 00:24:55;;;;;;;;;;;;;;;18.11;61.83;100368.47;2059332;28;19925;-69
2022/04/30 00:25:56;;;;;;;;;;;;;;;18.11;61.84;100367.59;2058387;28;19996;-69
2022/04/30 00:26:57;;;;;;;;;;;;;;;18.12;61.59;100366.59;2058015;28;19925;-69
2022/04/30 00:27:58;;;;;;;;;;;;;;;18.11;61.54;100368.47;2052717;28;20008;-69
2022/04/30 00:28:58;;;;;;;;;;;;;;;18.11;61.75;100364.88;2057328;28;19921;-68
2022/04/30 00:29:58;;;;;;;;;;;;;;;18.12;61.71;100366.59;2054512;28;20847;-69
2022/04/30 00:30:59;;;;;;;;;;;;;;;18.12;61.84;100372.06;2058580;28;19940;-70
2022/04/30 00:32:02;;;;;;;;;;;;;;;18.12;61.84;100374.78;2055274;28;20434;-68
2022/04/30 00:33:05;;;;;;;;;;;;;;;18.11;61.66;100363.00;2054873;28;20373;-69
2022/04/30 00:34:05;;;;;;;;;;;;;;;18.13;61.75;100360.16;2058757;28;20514;-68
2022/04/30 00:35:06;;;;;;;;;;;;;;;18.12;61.66;100363.88;2059992;28;20549;-69
2022/04/30 00:36:06;;;;;;;;;;;;;;;18.12;61.77;100363.88;2056687;28;20311;-68
2022/04/30 00:37:07;;;;;;;;;;;;;;;18.13;61.63;100366.47;2064210;28;20392;-69
2022/04/30 00:38:07;;;;;;;;;;;;;;;18.13;61.53;100365.63;2060561;28;19922;-69
2022/04/30 00:39:07;;;;;;;;;;;;;;;18.12;61.69;100359.25;2057949;28;19923;-69
2022/04/30 00:40:09;;;;;;;;;;;;;;;18.12;61.65;100359.25;2057902;28;19956;-69
2022/04/30 00:41:10;;;;;;;;;;;;;;;18.13;61.74;100362.88;2059928;28;19917;-69
2022/04/30 00:42:11;;;;;;;;;;;;;;;18.12;61.68;100363.88;2057276;28;19917;-69
2022/04/30 00:43:12;;;;;;;;;;;;;;;18.12;61.59;100359.25;2055792;28;20017;-69
2022/04/30 00:44:16;;;;;;;;;;;;;;;18.12;61.65;100358.41;2057954;28;20800;-69
2022/04/30 00:45:16;;;;;;;;;;;;;;;18.12;61.60;100363.88;2058377;28;19917;-69
2022/04/30 00:46:18;;;;;;;;;;;;;;;18.12;61.71;100355.69;2055894;28;19910;-69
2022/04/30 00:47:19;;;;;;;;;;;;;;;18.13;61.47;100360.16;2062145;28;19917;-70
2022/04/30 00:48:19;;;;;;;;;;;;;;;18.11;61.40;100357.56;2059768;28;20474;-69
2022/04/30 00:49:19;;;;;;;;;;;;;;;18.12;61.49;100355.69;2058801;28;20710;-69
2022/04/30 00:50:21;;;;;;;;;;;;;;;18.10;61.60;100355.81;2053159;28;20307;-68
2022/04/30 00:51:23;;;;;;;;;;;;;;;18.11;61.64;100356.69;2058312;28;19918;-68
2022/04/30 00:52:25;;;;;;;;;;;;;;;18.11;61.74;100351.25;2055949;28;19933;-69
2022/04/30 00:53:26;;;;;;;;;;;;;;;18.11;61.73;100356.69;2058072;28;20452;-69
2022/04/30 00:54:28;;;;;;;;;;;;;;;18.11;61.71;100356.69;2047054;28;19990;-68
2022/04/30 00:55:29;;;;;;;;;;;;;;;18.10;61.61;100354.94;2062420;28;19913;-68
2022/04/30 00:56:36;;;;;;;;;;;;;;;18.11;61.58;100356.69;2055741;28;19972;-69
2022/04/30 00:57:37;;;;;;;;;;;;;;;18.11;61.78;100356.69;2057814;28;19916;-69
2022/04/30 00:58:38;;;;;;;;;;;;;;;18.11;61.76;100357.56;2054582;28;20027;-70
2022/04/30 00:59:40;;;;;;;;;;;;;;;18.11;61.66;100353.97;2059243;28;19921;-69
2022/04/30 01:00:42;;;;;;;;;;;;;;;18.10;61.61;100355.81;2055917;28;19917;-69
2022/04/30 01:01:42;;;;;;;;;;;;;;;18.09;61.60;100347.78;2056602;28;20670;-69
2022/04/30 01:02:43;;;;;;;;;;;;;;;18.11;61.65;100352.09;2056058;28;20102;-68
2022/04/30 01:03:43;;;;;;;;;;;;;;;18.11;61.76;100346.63;2056300;28;19918;-69
2022/04/30 01:04:44;;;;;;;;;;;;;;;18.11;61.59;100345.78;2053537;28;20645;-68
2022/04/30 01:05:44;;;;;;;;;;;;;;;18.11;61.68;100345.78;2057733;28;20363;-69
2022/04/30 01:06:58;;;;;;;;;;;;;;;18.11;61.49;100348.50;2059765;28;19964;-68
2022/04/30 01:07:58;;;;;;;;;;;;;;;18.11;61.63;100341.19;2055615;28;20007;-69
2022/04/30 01:08:59;;;;;;;;;;;;;;;18.12;61.74;100347.50;2056436;28;19952;-69
2022/04/30 01:09:59;;;;;;;;;;;;;;;18.11;61.64;100341.19;2058926;28;19972;-69
2022/04/30 01:11:00;;;;;;;;;;;;;;;18.12;61.55;100342.03;2058365;28;20157;-68
2022/04/30 01:12:03;;;;;;;;;;;;;;;18.11;61.71;100343.06;2058348;28;19924;-68
2022/04/30 01:13:03;;;;;;;;;;;;;;;18.11;61.59;100334.88;2059178;28;20421;-69
2022/04/30 01:14:04;;;;;;;;;;;;;;;18.09;61.71;100329.53;2055256;28;19925;-69
2022/04/30 01:15:06;;;;;;;;;;;;;;;18.11;61.57;100340.31;2059741;28;19963;-68
2022/04/30 01:16:11;;;;;;;;;;;;;;;18.10;61.49;100333.13;2056372;28;19918;-68
2022/04/30 01:17:12;;;;;;;;;;;;;;;18.11;61.66;100334.88;2057523;28;20012;-69
2022/04/30 01:18:12;;;;;;;;;;;;;;;18.11;61.64;100334.88;2059115;28;19987;-68
2022/04/30 01:19:20;;;;;;;;;;;;;;;18.10;61.78;100333.97;2056368;28;20839;-68
2022/04/30 01:20:20;;;;;;;;;;;;;;;18.11;61.76;100321.22;2059659;28;19921;-69
2022/04/30 01:21:22;;;;;;;;;;;;;;;18.10;61.65;100322.22;2057430;28;20399;-68
2022/04/30 01:22:30;;;;;;;;;;;;;;;18.10;61.73;100316.75;2057543;28;20020;-69
2022/04/30 01:23:32;;;;;;;;;;;;;;;18.11;61.64;100329.41;2059291;28;20452;-68
2022/04/30 01:24:32;;;;;;;;;;;;;;;18.10;61.70;100322.22;2056989;28;20170;-68
2022/04/30 01:25:34;;;;;;;;;;;;;;;18.10;61.74;100316.75;2057603;28;20152;-69
2022/04/30 01:26:35;;;;;;;;;;;;;;;18.10;61.65;100316.75;2058199;28;19961;-69
2022/04/30 01:27:36;;;;;;;;;;;;;;;18.09;61.92;100315.91;2056552;28;19917;-69
2022/04/30 01:28:38;;;;;;;;;;;;;;;18.10;61.90;100316.75;2059421;28;20076;-69
2022/04/30 01:29:38;;;;;;;;;;;;;;;18.09;61.87;100307.72;2055382;28;19918;-69
2022/04/30 01:30:39;;;;;;;;;;;;;;;18.09;61.85;100315.91;2056674;28;19924;-69
2022/04/30 01:38:23;;;;;;;;;;;;;;;18.11;61.83;100307.59;2057445;28;20373;-68
2022/04/30 01:39:23;;;;;;;;;;;;;;;18.11;61.76;100296.69;2057765;28;20387;-69
2022/04/30 01:40:23;;;;;;;;;;;;;;;18.11;61.67;100307.59;2059511;28;19928;-69
2022/04/30 01:41:24;;;;;;;;;;;;;;;18.10;61.74;100308.56;2054232;28;19926;-69
2022/04/30 01:42:29;;;;;;;;;;;;;;;18.10;61.55;100301.25;2059043;28;19918;-68
2022/04/30 01:43:29;;;;;;;;;;;;;;;18.11;61.72;100304.84;2054954;28;20320;-67
2022/04/30 01:44:30;;;;;;;;;;;;;;;18.11;61.59;100303.00;2058973;28;20032;-68
2022/04/30 01:45:30;;;;;;;;;;;;;;;18.12;61.68;100303.84;2056934;28;19921;-68
2022/04/30 01:46:31;;;;;;;;;;;;;;;18.11;61.77;100304.84;2059912;28;19952;-68
2022/04/30 01:47:35;;;;;;;;;;;;;;;18.10;61.72;100298.50;2056664;28;20075;-69
2022/04/30 01:48:36;;;;;;;;;;;;;;;18.10;61.68;100297.66;2057060;28;19918;-69
2022/04/30 01:49:36;;;;;;;;;;;;;;;18.11;61.57;100296.69;2059696;28;19924;-69
2022/04/30 01:50:37;;;;;;;;;;;;;;;18.10;61.68;100293.06;2057331;28;20385;-69
2022/04/30 01:51:38;;;;;;;;;;;;;;;18.11;61.68;100299.41;2056889;28;19949;-68
2022/04/30 01:52:39;;;;;;;;;;;;;;;18.10;61.60;100300.38;2056626;28;19909;-69
2022/04/30 01:53:40;;;;;;;;;;;;;;;18.09;61.75;100302.25;2056257;28;19909;-68
2022/04/30 01:54:40;;;;;;;;;;;;;;;18.10;61.74;100305.84;2053909;28;19910;-68
2022/04/30 01:55:41;;;;;;;;;;;;;;;18.09;61.68;100304.13;2056158;28;20645;-69
2022/04/30 01:56:41;;;;;;;;;;;;;;;18.09;61.54;100304.13;2057231;28;20423;-69
2022/04/30 01:57:42;;;;;;;;;;;;;;;18.09;61.62;100304.13;2058620;28;19922;-69
2022/04/30 01:58:42;;;;;;;;;;;;;;;18.09;61.63;100306.84;2057187;28;20738;-69
2022/04/30 01:59:42;;;;;;;;;;;;;;;18.09;61.57;100306.84;2058412;28;20370;-69
2022/04/30 02:00:43;;;;;;;;;;;;;;;18.08;61.62;100305.13;2055979;28;20202;-69
2022/04/30 02:01:44;;;;;;;;;;;;;;;18.09;61.71;100304.13;2057260;28;19913;-69
2022/04/30 02:02:46;;;;;;;;;;;;;;;18.09;61.73;100304.13;2058122;28;19921;-68
2022/04/30 02:03:46;;;;;;;;;;;;;;;18.09;61.80;100304.13;2054217;28;19956;-68
2022/04/30 02:04:47;;;;;;;;;;;;;;;18.09;61.73;100310.44;2058482;28;19941;-68
2022/04/30 02:05:47;;;;;;;;;;;;;;;18.09;61.61;100299.53;2054098;28;19917;-69
2022/04/30 02:06:47;;;;;;;;;;;;;;;18.10;61.69;100309.44;2056485;28;19975;-68
2022/04/30 02:07:52;;;;;;;;;;;;;;;18.09;61.69;100301.41;2058854;28;19945;-69
2022/04/30 02:08:54;;;;;;;;;;;;;;;18.09;61.86;100304.13;2053167;28;19917;-69
2022/04/30 02:09:55;;;;;;;;;;;;;;;18.09;61.66;100304.13;2056528;28;19917;-69
2022/04/30 02:10:55;;;;;;;;;;;;;;;18.09;61.62;100296.81;2051572;28;19957;-69
2022/04/30 02:11:57;;;;;;;;;;;;;;;18.11;61.83;100308.44;2056969;28;19918;-69
2022/04/30 02:12:58;;;;;;;;;;;;;;;18.10;61.66;100301.25;2058866;28;19914;-69
2022/04/30 02:14:00;;;;;;;;;;;;;;;18.10;61.75;100305.84;2054600;28;19972;-69
2022/04/30 02:15:01;;;;;;;;;;;;;;;18.10;61.65;100305.84;2055957;28;19917;-69
2022/04/30 02:16:01;;;;;;;;;;;;;;;18.10;61.76;100300.38;2052728;28;19918;-68
2022/04/30 02:17:02;;;;;;;;;;;;;;;18.09;61.84;100299.53;2056642;28;19922;-68
2022/04/30 02:18:06;;;;;;;;;;;;;;;18.10;61.67;100300.38;2059418;28;19928;-69
2022/04/30 02:19:07;;;;;;;;;;;;;;;18.08;61.57;100297.81;2050702;28;19918;-69
2022/04/30 02:21:41;;;;;;;;;;;;;;;18.09;61.83;100293.22;2047279;28;19921;-69
2022/04/30 02:22:41;;;;;;;;;;;;;;;18.08;61.62;100297.81;2053079;28;19944;-69
2022/04/30 02:23:42;;;;;;;;;;;;;;;18.08;61.78;100296.94;2056870;28;19918;-68
2022/04/30 02:24:43;;;;;;;;;;;;;;;18.08;61.78;100292.38;2059293;28;19944;-70
2022/04/30 02:25:45;;;;;;;;;;;;;;;18.09;61.59;100295.94;2064761;28;19917;-70
2022/04/30 02:26:45;;;;;;;;;;;;;;;18.08;61.76;100296.94;2057256;28;20442;-69
2022/04/30 02:27:47;;;;;;;;;;;;;;;18.08;61.67;100296.94;2056167;28;20331;-69
2022/04/30 02:28:47;;;;;;;;;;;;;;;18.08;61.67;100295.09;2058334;28;20258;-69
2022/04/30 02:29:47;;;;;;;;;;;;;;;18.08;61.78;100294.19;2054491;28;19961;-70
2022/04/30 02:30:48;;;;;;;;;;;;;;;18.09;61.73;100293.22;2057292;28;19953;-70
2022/04/30 02:31:48;;;;;;;;;;;;;;;18.09;61.71;100304.13;2051323;28;19968;-69
2022/04/30 02:32:50;;;;;;;;;;;;;;;18.08;61.81;100296.94;2059713;28;19925;-69
2022/04/30 02:33:51;;;;;;;;;;;;;;;18.08;61.84;100296.94;2055793;28;19917;-70
2022/04/30 02:34:51;;;;;;;;;;;;;;;18.08;61.88;100296.94;2059422;28;19955;-69
2022/04/30 02:35:52;;;;;;;;;;;;;;;18.08;61.79;100294.19;2050070;28;19917;-69
2022/04/30 02:36:52;;;;;;;;;;;;;;;18.08;61.83;100295.09;2052079;28;19961;-69
2022/04/30 02:37:54;;;;;;;;;;;;;;;18.09;61.78;100290.50;2059263;28;20008;-69
2022/04/30 02:38:55;;;;;;;;;;;;;;;18.08;61.78;100295.09;2056798;28;19992;-69
2022/04/30 02:39:55;;;;;;;;;;;;;;;18.09;61.86;100295.94;2059327;28;19925;-70
2022/04/30 02:40:56;;;;;;;;;;;;;;;18.10;61.76;100294.94;2058167;28;19948;-69
2022/04/30 02:41:56;;;;;;;;;;;;;;;18.09;61.78;100293.22;2057535;28;19917;-68
2022/04/30 02:43:04;;;;;;;;;;;;;;;18.08;61.63;100288.75;2050642;28;19988;-69
2022/04/30 02:44:05;;;;;;;;;;;;;;;18.09;61.80;100287.75;2053056;28;19951;-69
2022/04/30 02:45:07;;;;;;;;;;;;;;;18.09;61.82;100287.75;2055129;28;19917;-69
2022/04/30 02:46:09;;;;;;;;;;;;;;;18.10;61.63;100298.50;2053205;28;19922;-69
2022/04/30 02:47:09;;;;;;;;;;;;;;;18.10;61.71;100290.34;2057086;28;19914;-69
2022/04/30 02:48:12;;;;;;;;;;;;;;;18.10;61.61;100294.94;2056869;28;19918;-69
2022/04/30 02:49:12;;;;;;;;;;;;;;;18.10;61.70;100289.47;2056661;28;19913;-68
2022/04/30 02:50:13;;;;;;;;;;;;;;;18.10;61.74;100289.47;2057727;28;19940;-69
2022/04/30 02:51:17;;;;;;;;;;;;;;;18.10;61.84;100289.47;2055571;28;19941;-69
2022/04/30 02:52:19;;;;;;;;;;;;;;;18.09;61.60;100291.34;2057985;28;19950;-69
2022/04/30 02:53:20;;;;;;;;;;;;;;;18.09;61.61;100285.03;2056270;28;20451;-69
2022/04/30 02:54:20;;;;;;;;;;;;;;;18.08;61.52;100286.03;2056559;28;20695;-69
2022/04/30 02:55:21;;;;;;;;;;;;;;;18.09;61.63;100287.75;2057037;28;19917;-69
2022/04/30 02:56:22;;;;;;;;;;;;;;;18.08;61.71;100289.63;2058658;28;20332;-69
2022/04/30 02:57:22;;;;;;;;;;;;;;;18.08;61.78;100296.94;2054669;28;19995;-69
2022/04/30 02:59:53;;;;;;;;;;;;;;;18.08;61.76;100291.47;2057599;28;19914;-69
2022/04/30 03:00:53;;;;;;;;;;;;;;;18.08;61.91;100291.47;2064149;28;20016;-68
2022/04/30 03:01:54;;;;;;;;;;;;;;;18.07;61.60;100287.88;2062288;28;20403;-69
2022/04/30 03:02:55;;;;;;;;;;;;;;;18.07;61.83;100289.75;2054288;28;19918;-68
2022/04/30 03:03:56;;;;;;;;;;;;;;;18.06;61.78;100288.91;2054995;28;20380;-68
2022/04/30 03:04:56;;;;;;;;;;;;;;;18.07;61.78;100295.22;2055744;28;20413;-68
2022/04/30 03:05:57;;;;;;;;;;;;;;;18.07;61.82;100289.75;2058507;28;20024;-69
2022/04/30 03:06:57;;;;;;;;;;;;;;;18.07;61.72;100287.88;2058496;28;20004;-69
2022/04/30 03:07:59;;;;;;;;;;;;;;;18.07;61.64;100285.16;2058402;28;20193;-69
2022/04/30 03:08:59;;;;;;;;;;;;;;;18.08;61.71;100291.47;2060558;28;19996;-69
2022/04/30 03:10:00;;;;;;;;;;;;;;;18.08;61.84;100286.91;2062454;28;20149;-69
2022/04/30 03:11:03;;;;;;;;;;;;;;;18.07;61.83;100289.75;2058437;28;19997;-69
2022/04/30 03:12:04;;;;;;;;;;;;;;;18.08;61.78;100295.09;2058685;28;19918;-69
2022/04/30 03:13:05;;;;;;;;;;;;;;;18.08;61.84;100286.03;2059766;28;19924;-69
2022/04/30 03:14:05;;;;;;;;;;;;;;;18.09;61.76;100287.75;2058295;28;19923;-69
2022/04/30 03:15:06;;;;;;;;;;;;;;;18.09;61.88;100293.22;2058528;28;19925;-68
2022/04/30 03:21:42;;;;;;;;;;;;;;;18.08;61.69;100291.47;2059855;28;20365;-68
2022/04/30 03:22:42;;;;;;;;;;;;;;;18.09;61.51;100290.50;2060390;28;20011;-69
2022/04/30 03:23:43;;;;;;;;;;;;;;;18.06;61.58;100288.06;2057748;28;20078;-68
2022/04/30 03:24:43;;;;;;;;;;;;;;;18.08;61.57;100292.38;2058701;28;19917;-68
2022/04/30 03:25:44;;;;;;;;;;;;;;;18.07;61.80;100290.63;2059520;28;20120;-68
2022/04/30 03:26:45;;;;;;;;;;;;;;;18.06;61.77;100288.06;2057360;28;20645;-69
2022/04/30 03:27:45;;;;;;;;;;;;;;;18.06;61.69;100288.06;2060592;28;20817;-69
2022/04/30 03:28:47;;;;;;;;;;;;;;;18.07;61.69;100289.75;2054748;28;19968;-69
2022/04/30 03:29:47;;;;;;;;;;;;;;;18.06;61.76;100291.63;2052274;28;19965;-69
2022/04/30 03:30:47;;;;;;;;;;;;;;;18.07;61.73;100289.75;2060072;28;19917;-67
2022/04/30 03:31:49;;;;;;;;;;;;;;;18.07;61.74;100295.22;2058095;28;20372;-69
2022/04/30 03:32:50;;;;;;;;;;;;;;;18.06;61.77;100285.31;2060381;28;20688;-68
2022/04/30 03:33:50;;;;;;;;;;;;;;;18.06;61.69;100293.50;2050534;28;20336;-69
2022/04/30 03:34:51;;;;;;;;;;;;;;;18.06;61.69;100288.06;2060056;28;19917;-69
2022/04/30 03:35:52;;;;;;;;;;;;;;;18.05;61.78;100284.44;2064853;28;19910;-69
2022/04/30 03:36:52;;;;;;;;;;;;;;;18.06;61.68;100286.19;2053306;28;20016;-69
2022/04/30 03:37:53;;;;;;;;;;;;;;;18.06;61.70;100279.88;2057984;28;19925;-69
2022/04/30 03:38:53;;;;;;;;;;;;;;;18.06;61.70;100283.44;2059261;28;19924;-69
2022/04/30 03:39:54;;;;;;;;;;;;;;;18.06;61.72;100288.06;2057170;28;19961;-68
2022/04/30 03:40:54;;;;;;;;;;;;;;;18.07;61.73;100284.31;2063447;28;20012;-68
2022/04/30 03:41:54;;;;;;;;;;;;;;;18.07;61.65;100284.31;2057546;28;19909;-69
2022/04/30 03:42:55;;;;;;;;;;;;;;;18.08;61.70;100291.47;2057858;28;19979;-69
2022/04/30 03:43:55;;;;;;;;;;;;;;;18.08;61.86;100280.56;2058473;28;20020;-69
2022/04/30 03:44:55;;;;;;;;;;;;;;;18.07;61.63;100287.03;2058536;28;19917;-69
2022/04/30 03:45:56;;;;;;;;;;;;;;;18.07;61.77;100285.16;2058809;28;19917;-69
2022/04/30 03:46:56;;;;;;;;;;;;;;;18.07;61.62;100285.16;2057152;28;19917;-69
2022/04/30 03:47:56;;;;;;;;;;;;;;;18.08;61.79;100280.56;2055056;28;19968;-69
2022/04/30 03:48:57;;;;;;;;;;;;;;;18.08;61.80;100280.56;2055469;28;19921;-69
2022/04/30 03:49:59;;;;;;;;;;;;;;;18.08;61.68;100275.09;2056172;28;19924;-69
2022/04/30 03:50:59;;;;;;;;;;;;;;;18.07;61.84;100274.25;2053375;28;19921;-68
2022/04/30 03:51:59;;;;;;;;;;;;;;;18.08;61.70;100277.84;2060157;28;20354;-69
2022/04/30 03:53:00;;;;;;;;;;;;;;;18.07;61.68;100278.84;2060386;28;20133;-69
2022/04/30 03:54:00;;;;;;;;;;;;;;;18.08;61.76;100272.38;2058841;28;20216;-68
2022/04/30 03:55:00;;;;;;;;;;;;;;;18.07;61.63;100278.84;2056307;28;20347;-69
2022/04/30 03:56:01;;;;;;;;;;;;;;;18.08;61.81;100281.44;2053442;28;19910;-69
2022/04/30 03:57:02;;;;;;;;;;;;;;;18.08;61.74;100277.84;2057164;28;20607;-69
2022/04/30 03:58:02;;;;;;;;;;;;;;;18.06;61.69;100277.13;2066073;28;19925;-69
2022/04/30 03:59:02;;;;;;;;;;;;;;;18.06;61.79;100277.13;2065440;28;20431;-69
2022/04/30 04:00:04;;;;;;;;;;;;;;;18.06;61.94;100271.69;2058211;28;20449;-69
2022/04/30 04:01:05;;;;;;;;;;;;;;;18.06;61.78;100277.13;2058590;28;20280;-69
2022/04/30 04:02:06;;;;;;;;;;;;;;;18.06;61.88;100274.41;2055039;28;19917;-69
2022/04/30 04:03:06;;;;;;;;;;;;;;;18.05;61.94;100270.78;2056015;28;19917;-69
2022/04/30 04:04:07;;;;;;;;;;;;;;;18.06;61.86;100266.22;2051341;28;19910;-69
2022/04/30 04:05:10;;;;;;;;;;;;;;;18.05;61.89;100267.22;2057388;28;19917;-70
2022/04/30 04:06:13;;;;;;;;;;;;;;;18.04;61.91;100268.22;2054872;28;20328;-68
2022/04/30 04:07:14;;;;;;;;;;;;;;;18.04;61.89;100273.69;2057162;28;19992;-70
2022/04/30 04:08:20;;;;;;;;;;;;;;;18.05;61.88;100269.94;2060063;28;20047;-70
2022/04/30 04:09:20;;;;;;;;;;;;;;;18.05;61.64;100270.78;2054741;28;19918;-69
2022/04/30 04:10:20;;;;;;;;;;;;;;;18.04;61.88;100274.53;2058524;28;19917;-69
2022/04/30 04:11:23;;;;;;;;;;;;;;;18.06;61.70;100277.13;2063053;28;19963;-69
2022/04/30 04:12:24;;;;;;;;;;;;;;;18.05;61.83;100267.22;2053314;28;20052;-69
2022/04/30 04:17:39;;;;;;;;;;;;;;;18.06;61.60;100268.97;2056309;28;19917;-69
2022/04/30 04:18:39;;;;;;;;;;;;;;;18.06;61.78;100266.22;2057177;28;19972;-69
2022/04/30 04:19:40;;;;;;;;;;;;;;;18.06;61.77;100271.69;2057446;28;19924;-70
2022/04/30 04:20:41;;;;;;;;;;;;;;;18.06;61.88;100266.22;2055922;28;19997;-69
2022/04/30 04:21:42;;;;;;;;;;;;;;;18.06;61.70;100271.69;2053679;28;20028;-69
2022/04/30 04:22:42;;;;;;;;;;;;;;;18.06;61.83;100271.69;2055891;28;19922;-68
2022/04/30 04:26:21;;;;;;;;;;;;;;;18.05;61.84;100261.75;2053053;28;20468;-69
2022/04/30 04:27:21;;;;;;;;;;;;;;;18.05;61.80;100269.94;2057955;28;20320;-69
2022/04/30 04:28:22;;;;;;;;;;;;;;;18.05;61.91;100275.41;2051450;28;19917;-69
2022/04/30 04:29:22;;;;;;;;;;;;;;;18.05;61.75;100278.13;2053380;28;19909;-69
2022/04/30 04:30:23;;;;;;;;;;;;;;;18.04;61.69;100274.53;2057267;28;20376;-69
2022/04/30 04:31:23;;;;;;;;;;;;;;;18.04;61.79;100277.25;2053428;28;20451;-69
2022/04/30 04:32:24;;;;;;;;;;;;;;;18.05;61.85;100275.41;2054620;28;20027;-69
2022/04/30 04:33:24;;;;;;;;;;;;;;;18.04;61.90;100276.41;2057484;28;19964;-69
2022/04/30 04:34:25;;;;;;;;;;;;;;;18.04;61.79;100279.13;2058386;28;19917;-69
2022/04/30 04:35:26;;;;;;;;;;;;;;;18.04;61.87;100284.59;2054224;28;19918;-69
2022/04/30 04:36:26;;;;;;;;;;;;;;;18.04;61.94;100273.69;2053064;28;19924;-69
2022/04/30 04:37:27;;;;;;;;;;;;;;;18.04;61.74;100279.13;2059173;28;19976;-69
2022/04/30 04:38:29;;;;;;;;;;;;;;;18.04;61.77;100279.13;2056507;28;20580;-70
2022/04/30 04:39:30;;;;;;;;;;;;;;;18.03;61.82;100278.28;2056333;28;20926;-69
2022/04/30 04:40:30;;;;;;;;;;;;;;;18.04;61.90;100284.59;2060657;28;20869;-70
2022/04/30 04:41:31;;;;;;;;;;;;;;;18.04;61.69;100285.44;2062610;28;19944;-70
2022/04/30 04:42:31;;;;;;;;;;;;;;;18.05;61.71;100291.75;2054843;28;20681;-69
2022/04/30 04:43:31;;;;;;;;;;;;;;;18.04;61.89;100284.59;2056151;28;19918;-68
2022/04/30 04:44:32;;;;;;;;;;;;;;;18.05;61.83;100287.16;2058133;28;19917;-69
2022/04/30 04:45:32;;;;;;;;;;;;;;;18.05;61.92;100283.56;2056380;28;19918;-69
2022/04/30 04:46:32;;;;;;;;;;;;;;;18.05;61.88;100291.75;2058170;28;19917;-70
2022/04/30 04:47:37;;;;;;;;;;;;;;;18.05;61.86;100287.16;2059870;28;19916;-69
2022/04/30 04:48:37;;;;;;;;;;;;;;;18.04;61.92;100287.31;2055156;28;19941;-70
2022/04/30 04:49:37;;;;;;;;;;;;;;;18.05;61.72;100291.75;2059083;28;19910;-69
2022/04/30 04:50:39;;;;;;;;;;;;;;;18.04;61.71;100293.63;2058296;28;20675;-69
2022/04/30 04:51:39;;;;;;;;;;;;;;;18.06;61.72;100290.78;2055557;28;19917;-69
2022/04/30 04:52:40;;;;;;;;;;;;;;;18.05;61.88;100295.34;2059916;28;19924;-70
2022/04/30 04:53:40;;;;;;;;;;;;;;;18.07;61.77;100295.22;2055654;28;19924;-70
2022/04/30 04:54:41;;;;;;;;;;;;;;;18.05;61.63;100291.75;2059581;28;19909;-68
2022/04/30 04:55:42;;;;;;;;;;;;;;;18.07;61.68;100295.22;2056735;28;19917;-68
2022/04/30 04:56:44;;;;;;;;;;;;;;;18.06;61.80;100293.50;2057625;28;20761;-70
2022/04/30 04:57:44;;;;;;;;;;;;;;;18.06;61.81;100296.22;2059793;28;20566;-68
2022/04/30 04:58:44;;;;;;;;;;;;;;;18.05;61.65;100292.63;2056941;28;20268;-67
2022/04/30 04:59:44;;;;;;;;;;;;;;;18.06;61.79;100293.50;2058649;28;19910;-69
2022/04/30 05:00:46;;;;;;;;;;;;;;;18.04;61.90;100290.91;2058945;28;19918;-68
2022/04/30 05:01:49;;;;;;;;;;;;;;;18.05;61.73;100297.22;2057495;28;20036;-69
2022/04/30 05:02:53;;;;;;;;;;;;;;;18.05;61.88;100299.94;2059604;28;20016;-69
2022/04/30 05:03:53;;;;;;;;;;;;;;;18.04;61.90;100295.50;2058121;28;19933;-69
2022/04/30 05:04:53;;;;;;;;;;;;;;;18.04;61.92;100295.50;2058640;28;19918;-68
2022/04/30 05:05:54;;;;;;;;;;;;;;;18.04;61.98;100300.97;2058057;28;19924;-68
2022/04/30 05:06:54;;;;;;;;;;;;;;;18.04;61.68;100295.50;2053553;28;19917;-69
2022/04/30 05:07:54;;;;;;;;;;;;;;;18.04;61.88;100290.06;2059606;28;19917;-68
2022/04/30 05:08:55;;;;;;;;;;;;;;;18.03;61.79;100294.66;2054743;28;19924;-69
2022/04/30 05:09:55;;;;;;;;;;;;;;;18.04;61.96;100295.50;2058935;28;19921;-68
2022/04/30 05:10:55;;;;;;;;;;;;;;;18.03;61.91;100299.22;2057607;28;19917;-69
2022/04/30 05:11:55;;;;;;;;;;;;;;;18.03;61.83;100296.47;2057652;28;20678;-69
2022/04/30 05:12:56;;;;;;;;;;;;;;;18.02;61.91;100287.44;2059897;28;19949;-68
2022/04/30 05:13:56;;;;;;;;;;;;;;;18.03;61.73;100293.75;2057213;28;19980;-68
2022/04/30 05:14:57;;;;;;;;;;;;;;;18.03;61.84;100296.47;2057036;28;20389;-69
2022/04/30 05:15:57;;;;;;;;;;;;;;;18.03;61.80;100299.22;2053302;28;20106;-69
2022/04/30 05:16:57;;;;;;;;;;;;;;;18.03;61.91;100293.75;2056195;28;20540;-69
2022/04/30 05:17:58;;;;;;;;;;;;;;;18.03;61.74;100294.66;2064329;28;20170;-68
2022/04/30 05:18:58;;;;;;;;;;;;;;;18.03;61.76;100296.47;2060927;28;20643;-69
2022/04/30 05:19:58;;;;;;;;;;;;;;;18.04;61.83;100300.97;2057532;28;20072;-69
2022/04/30 05:20:59;;;;;;;;;;;;;;;18.04;61.71;100300.97;2057444;28;19917;-69
2022/04/30 05:22:00;;;;;;;;;;;;;;;18.04;61.79;100300.97;2057488;28;19944;-69
2022/04/30 05:23:00;;;;;;;;;;;;;;;18.03;61.67;100291.91;2065509;28;19935;-69
2022/04/30 05:24:00;;;;;;;;;;;;;;;18.04;61.99;100300.97;2056657;28;20438;-69
2022/04/30 05:25:01;;;;;;;;;;;;;;;18.05;61.87;100302.66;2056863;28;20014;-69
2022/04/30 05:26:01;;;;;;;;;;;;;;;18.04;61.72;100303.69;2057161;28;19968;-68
2022/04/30 05:27:01;;;;;;;;;;;;;;;18.05;61.79;100302.66;2056057;28;20577;-68
2022/04/30 05:28:02;;;;;;;;;;;;;;;18.05;61.83;100302.66;2058406;28;19917;-69
2022/04/30 05:29:02;;;;;;;;;;;;;;;18.04;61.66;100304.53;2057403;28;19967;-68
2022/04/30 05:30:03;;;;;;;;;;;;;;;18.05;61.85;100302.66;2057933;28;19931;-69
2022/04/30 05:31:05;;;;;;;;;;;;;;;18.04;61.76;100303.69;2057753;28;19913;-68
2022/04/30 05:32:05;;;;;;;;;;;;;;;18.04;61.88;100301.81;2055980;28;20360;-68
2022/04/30 05:33:05;;;;;;;;;;;;;;;18.05;61.84;100302.66;2058563;28;19917;-69
2022/04/30 05:34:06;;;;;;;;;;;;;;;18.05;61.75;100297.22;2057231;28;19921;-68
2022/04/30 05:35:06;;;;;;;;;;;;;;;18.05;61.92;100305.41;2057156;28;20666;-69